Time,TemperatureF,DewpointF,PressureIn,WindDirection,WindDirectionDegrees,WindSpeedMPH,WindSpeedGustMPH,Humidity,HourlyPrecipIn,Conditions,Clouds,dailyrainin,SoftwareType,DateUTC
2013-07-31 00:01:00,66.9,59.5,28.97,North,349,0.0,0.0,77,0.00,,,0.00,VWS V14.00,2013-07-31 05:01:00,
2013-07-31 00:06:00,66.9,59.5,28.97,North,349,0.0,0.0,77,0.00,,,0.00,VWS V14.00,2013-07-31 05:06:00,
2013-07-31 00:11:00,66.9,59.5,28.97,North,349,0.0,0.0,77,0.00,,,0.00,VWS V14.00,2013-07-31 05:11:00,
2013-07-31 00:17:00,66.9,59.5,28.97,North,349,0.0,0.0,77,0.00,,,0.00,VWS V14.00,2013-07-31 05:17:00,
2013-07-31 00:22:00,66.7,59.7,28.97,North,349,0.0,0.0,78,0.00,,,0.00,VWS V14.00,2013-07-31 05:22:00,
2013-07-31 00:27:00,66.9,59.8,28.97,North,349,0.0,0.0,78,0.00,,,0.00,VWS V14.00,2013-07-31 05:27:00,
2013-07-31 00:32:00,66.7,59.7,28.97,North,349,0.0,0.0,78,0.00,,,0.00,VWS V14.00,2013-07-31 05:32:00,
2013-07-31 00:37:00,66.7,59.7,28.97,North,349,0.0,0.0,78,0.00,,,0.00,VWS V14.00,2013-07-31 05:37:00,
2013-07-31 00:42:00,66.7,59.7,28.94,North,349,0.0,0.0,78,0.00,,,0.00,VWS V14.00,2013-07-31 05:42:00,
2013-07-31 00:47:00,66.7,59.7,28.94,North,349,0.0,0.0,78,0.00,,,0.00,VWS V14.00,2013-07-31 05:47:00,
2013-07-31 00:52:00,66.7,59.7,28.94,North,349,0.0,0.0,78,0.00,,,0.00,VWS V14.00,2013-07-31 05:52:00,
2013-07-31 00:57:00,66.6,59.5,28.94,North,349,0.0,0.0,78,0.00,,,0.00,VWS V14.00,2013-07-31 05:57:00,
2013-07-31 01:02:00,66.6,59.5,28.94,North,349,0.0,0.0,78,0.00,,,0.00,VWS V14.00,2013-07-31 06:02:00,
2013-07-31 01:07:00,66.6,59.5,28.94,North,349,0.0,0.0,78,0.00,,,0.00,VWS V14.00,2013-07-31 06:07:00,
2013-07-31 01:12:00,66.6,59.5,28.94,North,349,0.0,0.0,78,0.00,,,0.00,VWS V14.00,2013-07-31 06:12:00,
2013-07-31 01:17:00,66.4,59.3,28.94,North,349,0.0,0.0,78,0.00,,,0.00,VWS V14.00,2013-07-31 06:17:00,
2013-07-31 01:22:00,66.4,59.0,28.94,North,349,0.0,0.0,77,0.00,,,0.00,VWS V14.00,2013-07-31 06:22:00,
2013-07-31 01:27:00,66.4,59.3,28.94,North,349,0.0,0.0,78,0.00,,,0.00,VWS V14.00,2013-07-31 06:27:00,
2013-07-31 01:32:00,66.2,58.8,28.94,North,349,0.0,0.0,77,0.00,,,0.00,VWS V14.00,2013-07-31 06:32:00,
2013-07-31 01:37:00,66.0,59.0,28.94,North,349,0.0,0.0,78,0.00,,,0.00,VWS V14.00,2013-07-31 06:37:00,
2013-07-31 01:42:00,65.8,58.8,28.94,North,349,0.0,0.0,78,0.00,,,0.00,VWS V14.00,2013-07-31 06:42:00,
2013-07-31 01:47:00,65.5,58.5,28.94,North,349,0.0,0.0,78,0.00,,,0.00,VWS V14.00,2013-07-31 06:47:00,
2013-07-31 01:52:00,65.3,58.3,28.94,North,349,0.0,0.0,78,0.00,,,0.00,VWS V14.00,2013-07-31 06:52:00,
2013-07-31 01:57:00,64.8,57.4,28.94,North,349,0.0,0.0,77,0.00,,,0.00,VWS V14.00,2013-07-31 06:57:00,
2013-07-31 02:02:00,64.4,57.0,28.94,North,349,0.0,0.0,77,0.00,,,0.00,VWS V14.00,2013-07-31 07:02:00,
2013-07-31 02:07:00,64.2,57.2,28.94,North,349,0.0,0.0,78,0.00,,,0.00,VWS V14.00,2013-07-31 07:07:00,
2013-07-31 02:12:00,64.0,57.0,28.94,North,349,0.0,0.0,78,0.00,,,0.00,VWS V14.00,2013-07-31 07:12:00,
2013-07-31 02:17:00,63.9,56.9,28.94,North,349,0.0,0.0,78,0.00,,,0.00,VWS V14.00,2013-07-31 07:17:00,
2013-07-31 02:22:00,63.5,56.5,28.94,North,349,0.0,0.0,78,0.00,,,0.00,VWS V14.00,2013-07-31 07:22:00,
2013-07-31 02:27:00,63.5,56.5,28.94,North,349,0.0,0.0,78,0.00,,,0.00,VWS V14.00,2013-07-31 07:27:00,
2013-07-31 02:32:00,63.5,56.9,28.94,North,349,0.0,0.0,79,0.00,,,0.00,VWS V14.00,2013-07-31 07:32:00,
2013-07-31 02:37:00,63.3,56.7,28.94,North,349,0.0,0.0,79,0.00,,,0.00,VWS V14.00,2013-07-31 07:37:00,
2013-07-31 02:42:00,63.5,57.2,28.94,North,349,0.0,0.0,80,0.00,,,0.00,VWS V14.00,2013-07-31 07:42:00,
2013-07-31 02:47:00,63.5,57.2,28.94,North,349,0.0,0.0,80,0.00,,,0.00,VWS V14.00,2013-07-31 07:47:00,
2013-07-31 02:52:00,63.1,57.2,28.94,North,349,0.0,0.0,81,0.00,,,0.00,VWS V14.00,2013-07-31 07:52:00,
2013-07-31 02:57:00,63.5,57.6,28.94,North,349,0.0,0.0,81,0.00,,,0.00,VWS V14.00,2013-07-31 07:57:00,
2013-07-31 03:02:00,63.9,58.3,28.94,North,349,0.0,0.0,82,0.00,,,0.00,VWS V14.00,2013-07-31 08:02:00,
2013-07-31 03:07:00,64.4,58.8,28.94,North,349,0.0,0.0,82,0.00,,,0.00,VWS V14.00,2013-07-31 08:07:00,
2013-07-31 03:12:00,64.6,59.0,28.94,North,349,0.0,0.0,82,0.00,,,0.00,VWS V14.00,2013-07-31 08:12:00,
2013-07-31 03:17:00,64.6,59.0,28.94,North,349,0.0,0.0,82,0.00,,,0.00,VWS V14.00,2013-07-31 08:17:00,
2013-07-31 03:22:00,64.6,59.0,28.94,North,349,0.0,0.0,82,0.00,,,0.00,VWS V14.00,2013-07-31 08:22:00,
2013-07-31 03:27:00,64.6,59.3,28.94,North,349,0.0,0.0,83,0.00,,,0.00,VWS V14.00,2013-07-31 08:27:00,
2013-07-31 03:32:00,64.8,59.5,28.94,North,349,0.0,0.0,83,0.00,,,0.00,VWS V14.00,2013-07-31 08:32:00,
2013-07-31 03:37:00,64.8,59.5,28.94,North,349,0.0,0.0,83,0.00,,,0.00,VWS V14.00,2013-07-31 08:37:00,
2013-07-31 03:42:00,64.6,59.3,28.94,North,349,0.0,0.0,83,0.00,,,0.00,VWS V14.00,2013-07-31 08:42:00,
2013-07-31 03:47:00,64.6,59.3,28.94,North,349,0.0,0.0,83,0.00,,,0.00,VWS V14.00,2013-07-31 08:47:00,
2013-07-31 03:52:00,64.4,59.1,28.94,North,349,0.0,0.0,83,0.00,,,0.00,VWS V14.00,2013-07-31 08:52:00,
2013-07-31 03:57:00,64.4,59.1,28.94,North,349,0.0,0.0,83,0.00,,,0.00,VWS V14.00,2013-07-31 08:57:00,
2013-07-31 04:02:00,64.4,59.1,28.94,North,349,0.0,0.0,83,0.00,,,0.00,VWS V14.00,2013-07-31 09:02:00,
2013-07-31 04:07:00,64.6,59.3,28.94,North,349,0.0,0.0,83,0.00,,,0.00,VWS V14.00,2013-07-31 09:07:00,
2013-07-31 04:12:00,64.8,59.8,28.94,North,349,0.0,0.0,84,0.00,,,0.00,VWS V14.00,2013-07-31 09:12:00,
2013-07-31 04:17:00,64.8,59.8,28.94,North,349,0.0,0.0,84,0.00,,,0.00,VWS V14.00,2013-07-31 09:17:00,
2013-07-31 04:22:00,64.9,60.0,28.94,North,349,0.0,0.0,84,0.00,,,0.00,VWS V14.00,2013-07-31 09:22:00,
2013-07-31 04:27:00,64.9,60.0,28.94,North,349,0.0,0.0,84,0.00,,,0.00,VWS V14.00,2013-07-31 09:27:00,
2013-07-31 04:32:00,65.1,60.2,28.94,North,349,0.0,0.0,84,0.00,,,0.00,VWS V14.00,2013-07-31 09:32:00,
2013-07-31 04:37:00,65.1,60.5,28.94,North,349,0.0,0.0,85,0.00,,,0.00,VWS V14.00,2013-07-31 09:37:00,
2013-07-31 04:42:00,65.1,60.5,28.97,North,349,0.0,0.0,85,0.00,,,0.00,VWS V14.00,2013-07-31 09:42:00,
2013-07-31 04:47:00,65.1,60.5,28.97,North,349,0.0,0.0,85,0.00,,,0.00,VWS V14.00,2013-07-31 09:47:00,
2013-07-31 04:52:00,65.1,60.5,28.97,West,268,0.0,0.0,85,0.00,,,0.00,VWS V14.00,2013-07-31 09:52:00,
2013-07-31 04:57:00,65.1,60.5,28.97,WSW,257,0.0,0.0,85,0.00,,,0.00,VWS V14.00,2013-07-31 09:57:00,
2013-07-31 05:02:00,65.1,60.5,28.97,WNW,290,0.0,3.1,85,0.00,,,0.00,VWS V14.00,2013-07-31 10:02:00,
2013-07-31 05:07:00,65.1,60.5,28.97,SSW,211,0.0,3.6,85,0.00,,,0.00,VWS V14.00,2013-07-31 10:07:00,
2013-07-31 05:12:00,65.1,60.5,28.97,NW,319,0.0,0.0,85,0.00,,,0.00,VWS V14.00,2013-07-31 10:12:00,
2013-07-31 05:17:00,65.1,60.8,28.97,NW,319,0.0,0.0,86,0.00,,,0.00,VWS V14.00,2013-07-31 10:17:00,
2013-07-31 05:22:00,65.3,61.0,28.97,WSW,254,3.1,4.0,86,0.00,,,0.00,VWS V14.00,2013-07-31 10:22:00,
2013-07-31 05:27:00,65.5,61.2,28.97,WNW,290,3.1,4.9,86,0.00,,,0.00,VWS V14.00,2013-07-31 10:27:00,
2013-07-31 05:32:00,65.3,61.0,28.97,WSW,245,0.0,4.0,86,0.00,,,0.00,VWS V14.00,2013-07-31 10:32:00,
2013-07-31 05:37:00,65.3,61.0,28.97,West,259,0.0,4.0,86,0.00,,,0.00,VWS V14.00,2013-07-31 10:37:00,
2013-07-31 05:42:00,65.3,61.0,28.97,SW,228,3.1,5.4,86,0.00,,,0.00,VWS V14.00,2013-07-31 10:42:00,
2013-07-31 05:47:00,65.3,61.3,28.97,WNW,290,4.0,5.4,87,0.00,,,0.00,VWS V14.00,2013-07-31 10:47:00,
2013-07-31 05:52:00,65.1,61.2,28.97,WSW,241,0.0,3.6,87,0.00,,,0.00,VWS V14.00,2013-07-31 10:52:00,
2013-07-31 05:57:00,65.1,61.2,28.97,West,261,3.1,4.0,87,0.00,,,0.00,VWS V14.00,2013-07-31 10:57:00,
2013-07-31 06:02:00,65.1,61.2,28.97,SW,217,0.0,4.0,87,0.00,,,0.00,VWS V14.00,2013-07-31 11:02:00,
2013-07-31 06:07:00,65.1,61.2,28.97,SW,221,3.6,4.0,87,0.00,,,0.00,VWS V14.00,2013-07-31 11:07:00,
2013-07-31 06:12:00,65.1,61.2,28.97,West,270,0.0,4.0,87,0.00,,,0.00,VWS V14.00,2013-07-31 11:12:00,
2013-07-31 06:17:00,65.1,61.2,28.97,WSW,246,0.0,4.0,87,0.00,,,0.00,VWS V14.00,2013-07-31 11:17:00,
2013-07-31 06:22:00,65.1,61.2,28.97,SW,232,4.0,4.9,87,0.00,,,0.00,VWS V14.00,2013-07-31 11:22:00,
2013-07-31 06:27:00,65.1,61.5,28.97,West,278,3.6,5.8,88,0.00,,,0.00,VWS V14.00,2013-07-31 11:27:00,
2013-07-31 06:32:00,65.1,61.5,28.97,WSW,247,2.7,4.0,88,0.00,,,0.00,VWS V14.00,2013-07-31 11:32:00,
2013-07-31 06:37:00,65.1,61.5,28.97,WSW,252,3.1,4.9,88,0.00,,,0.00,VWS V14.00,2013-07-31 11:37:00,
2013-07-31 06:42:00,65.3,61.7,28.97,SW,222,0.0,2.7,88,0.00,,,0.00,VWS V14.00,2013-07-31 11:42:00,
2013-07-31 06:47:00,65.5,61.8,28.97,WSW,258,0.0,3.1,88,0.00,,,0.00,VWS V14.00,2013-07-31 11:47:00,
2013-07-31 06:52:00,65.5,61.8,28.97,SW,225,0.0,0.0,88,0.00,,,0.00,VWS V14.00,2013-07-31 11:52:00,
2013-07-31 06:57:00,65.8,62.2,28.97,NNW,336,0.0,0.0,88,0.00,,,0.00,VWS V14.00,2013-07-31 11:57:00,
2013-07-31 07:02:00,66.0,62.4,28.97,NNW,329,0.0,0.0,88,0.00,,,0.00,VWS V14.00,2013-07-31 12:02:00,
2013-07-31 07:07:00,66.0,62.4,28.97,NNW,329,0.0,0.0,88,0.00,,,0.00,VWS V14.00,2013-07-31 12:07:00,
2013-07-31 07:12:00,66.0,62.4,28.97,SW,216,0.0,0.0,88,0.00,,,0.00,VWS V14.00,2013-07-31 12:12:00,
2013-07-31 07:17:00,65.8,62.2,28.97,WSW,246,2.7,4.0,88,0.00,,,0.00,VWS V14.00,2013-07-31 12:17:00,
2013-07-31 07:22:00,65.8,61.9,28.97,SSW,213,0.0,0.0,87,0.00,,,0.00,VWS V14.00,2013-07-31 12:22:00,
2013-07-31 07:27:00,65.8,61.9,29.00,SSW,199,0.0,4.0,87,0.00,,,0.00,VWS V14.00,2013-07-31 12:27:00,
2013-07-31 07:32:00,66.2,61.9,29.00,West,279,0.0,0.0,86,0.00,,,0.00,VWS V14.00,2013-07-31 12:32:00,
2013-07-31 07:37:00,66.2,61.6,29.00,West,270,0.0,3.1,85,0.00,,,0.00,VWS V14.00,2013-07-31 12:37:00,
2013-07-31 07:42:00,66.9,62.3,29.00,WNW,295,0.0,2.2,85,0.00,,,0.00,VWS V14.00,2013-07-31 12:42:00,
2013-07-31 07:47:00,67.3,62.0,29.00,WSW,246,0.0,2.2,83,0.00,,,0.00,VWS V14.00,2013-07-31 12:47:00,
2013-07-31 07:52:00,66.9,60.6,29.00,West,265,0.0,3.6,80,0.00,,,0.00,VWS V14.00,2013-07-31 12:52:00,
2013-07-31 07:57:00,66.6,58.0,29.00,SSW,198,2.7,4.0,74,0.00,,,0.00,VWS V14.00,2013-07-31 12:57:00,
2013-07-31 08:02:00,67.1,57.0,29.00,WSW,254,0.0,4.0,70,0.00,,,0.00,VWS V14.00,2013-07-31 13:02:00,
2013-07-31 08:07:00,67.1,55.8,29.00,SSW,211,3.1,4.0,67,0.00,,,0.00,VWS V14.00,2013-07-31 13:07:00,
2013-07-31 08:12:00,66.6,54.4,29.00,SW,226,3.6,4.9,65,0.00,,,0.00,VWS V14.00,2013-07-31 13:12:00,
2013-07-31 08:17:00,66.6,54.9,29.00,WSW,258,2.7,4.9,66,0.00,,,0.00,VWS V14.00,2013-07-31 13:17:00,
2013-07-31 08:22:00,66.9,55.6,29.00,NW,325,0.0,2.7,67,0.00,,,0.00,VWS V14.00,2013-07-31 13:22:00,
2013-07-31 08:27:00,67.5,55.7,29.00,WNW,297,0.0,3.6,66,0.00,,,0.00,VWS V14.00,2013-07-31 13:27:00,
2013-07-31 08:32:00,68.0,55.0,29.00,West,265,2.2,3.6,63,0.00,,,0.00,VWS V14.00,2013-07-31 13:32:00,
2013-07-31 08:37:00,68.9,54.0,29.00,NW,306,0.0,3.6,59,0.00,,,0.00,VWS V14.00,2013-07-31 13:37:00,
2013-07-31 08:42:00,69.6,53.2,29.00,NW,324,0.0,0.0,56,0.00,,,0.00,VWS V14.00,2013-07-31 13:42:00,
2013-07-31 08:47:00,70.2,53.3,29.00,NW,324,0.0,0.0,55,0.00,,,0.00,VWS V14.00,2013-07-31 13:47:00,
2013-07-31 08:52:00,71.1,50.4,29.00,SW,218,3.1,3.6,48,0.00,,,0.00,VWS V14.00,2013-07-31 13:52:00,
2013-07-31 08:57:00,71.4,47.8,29.00,WSW,245,2.7,5.4,43,0.00,,,0.00,VWS V14.00,2013-07-31 13:57:00,
2013-07-31 09:02:00,73.0,47.3,29.00,North,10,4.0,5.4,40,0.00,,OVC250,0.00,VWS V14.00,2013-07-31 14:02:00,
2013-07-31 09:07:00,74.5,45.8,29.00,NW,315,0.0,5.4,36,0.00,,OVC250,0.00,VWS V14.00,2013-07-31 14:07:00,
2013-07-31 09:12:00,75.2,44.2,29.00,WNW,301,0.0,2.2,33,0.00,,OVC250,0.00,VWS V14.00,2013-07-31 14:12:00,
2013-07-31 09:17:00,77.5,45.4,29.00,NNE,18,0.0,3.6,32,0.00,,OVC250,0.00,VWS V14.00,2013-07-31 14:17:00,
2013-07-31 09:22:00,77.5,36.8,29.00,WSW,246,4.0,6.3,23,0.00,,OVC250,0.00,VWS V14.00,2013-07-31 14:22:00,
2013-07-31 09:27:00,78.3,41.6,29.00,West,279,0.0,6.3,27,0.00,,OVC250,0.00,VWS V14.00,2013-07-31 14:27:00,
2013-07-31 09:32:00,78.6,40.9,29.00,SW,231,2.7,3.6,26,0.00,,OVC250,0.00,VWS V14.00,2013-07-31 14:32:00,
2013-07-31 09:37:00,79.2,45.1,29.00,WSW,239,2.2,3.6,30,0.00,,OVC250,0.00,VWS V14.00,2013-07-31 14:37:00,
2013-07-31 09:42:00,77.5,42.8,29.00,West,271,3.6,5.4,29,0.00,,OVC250,0.00,VWS V14.00,2013-07-31 14:42:00,
2013-07-31 09:47:00,75.9,44.0,29.00,WSW,242,0.0,5.4,32,0.00,,OVC250,0.00,VWS V14.00,2013-07-31 14:47:00,
2013-07-31 09:52:00,76.3,44.3,29.00,NW,313,0.0,4.9,32,0.00,,OVC250,0.00,VWS V14.00,2013-07-31 14:52:00,
2013-07-31 09:57:00,76.5,43.6,29.00,NW,320,0.0,4.9,31,0.00,,OVC250,0.00,VWS V14.00,2013-07-31 14:57:00,
2013-07-31 10:02:00,77.7,43.8,29.00,WSW,256,2.7,3.1,30,0.00,,SCT250,0.00,VWS V14.00,2013-07-31 15:02:00,
2013-07-31 10:07:00,77.9,44.0,29.00,NW,326,0.0,4.0,30,0.00,,SCT250,0.00,VWS V14.00,2013-07-31 15:07:00,
2013-07-31 10:12:00,78.6,43.7,29.00,WSW,244,2.7,2.7,29,0.00,,SCT250,0.00,VWS V14.00,2013-07-31 15:12:00,
2013-07-31 10:17:00,78.4,43.6,29.00,West,268,0.0,4.9,29,0.00,,SCT250,0.00,VWS V14.00,2013-07-31 15:17:00,
2013-07-31 10:22:00,77.9,40.3,29.00,South,185,2.7,5.8,26,0.00,,SCT250,0.00,VWS V14.00,2013-07-31 15:22:00,
2013-07-31 10:27:00,76.1,42.5,29.00,SW,218,2.7,5.8,30,0.00,,SCT250,0.00,VWS V14.00,2013-07-31 15:27:00,
2013-07-31 10:32:00,76.1,43.3,29.00,SW,221,2.7,4.9,31,0.00,,SCT250,0.00,VWS V14.00,2013-07-31 15:32:00,
2013-07-31 10:37:00,77.2,44.2,29.00,SSW,212,2.2,5.8,31,0.00,,SCT250,0.00,VWS V14.00,2013-07-31 15:37:00,
2013-07-31 10:42:00,76.5,43.6,29.00,SW,215,2.7,4.0,31,0.00,,SCT250,0.00,VWS V14.00,2013-07-31 15:42:00,
2013-07-31 10:47:00,77.5,44.5,29.00,WSW,252,0.0,4.0,31,0.00,,SCT250,0.00,VWS V14.00,2013-07-31 15:47:00,
2013-07-31 10:52:00,77.2,41.6,29.00,SW,234,4.0,4.0,28,0.00,,SCT250,0.00,VWS V14.00,2013-07-31 15:52:00,
2013-07-31 10:57:00,77.5,41.9,29.00,WSW,242,2.7,4.0,28,0.00,,SCT250,0.00,VWS V14.00,2013-07-31 15:57:00,
2013-07-31 11:02:00,80.6,41.6,29.00,SSE,149,0.0,2.7,25,0.00,,OVC031,0.00,VWS V14.00,2013-07-31 16:02:00,
2013-07-31 11:07:00,84.7,44.0,29.00,SSE,149,0.0,2.7,24,0.00,,OVC031,0.00,VWS V14.00,2013-07-31 16:07:00,
2013-07-31 11:12:00,88.7,39.8,28.97,SW,220,4.0,4.0,18,0.00,,OVC031,0.00,VWS V14.00,2013-07-31 16:12:00,
2013-07-31 11:17:00,86.5,38.0,28.97,SW,229,0.0,5.4,18,0.00,,OVC031,0.00,VWS V14.00,2013-07-31 16:17:00,
2013-07-31 11:22:00,89.8,36.0,28.97,SW,229,0.0,0.0,15,0.00,,OVC031,0.00,VWS V14.00,2013-07-31 16:22:00,
2013-07-31 11:27:00,91.0,37.0,29.00,NE,34,3.1,3.6,15,0.00,,OVC031,0.00,VWS V14.00,2013-07-31 16:27:00,
2013-07-31 11:32:00,92.8,41.7,29.00,ESE,105,0.0,0.0,17,0.00,,OVC031,0.00,VWS V14.00,2013-07-31 16:32:00,
2013-07-31 11:37:00,90.3,36.5,29.00,East,87,0.0,4.0,15,0.00,,OVC031,0.00,VWS V14.00,2013-07-31 16:37:00,
2013-07-31 11:42:00,86.9,38.3,28.97,North,1,2.2,3.6,18,0.00,,OVC031,0.00,VWS V14.00,2013-07-31 16:42:00,
2013-07-31 11:47:00,81.3,37.7,28.97,SW,229,3.6,4.9,21,0.00,,OVC031,0.00,VWS V14.00,2013-07-31 16:47:00,
2013-07-31 11:52:00,79.7,39.8,28.97,SSW,212,4.0,4.0,24,0.00,,OVC031,0.00,VWS V14.00,2013-07-31 16:52:00,
2013-07-31 11:57:00,80.2,40.2,29.00,SSW,203,2.7,6.3,24,0.00,,OVC031,0.00,VWS V14.00,2013-07-31 16:57:00,
2013-07-31 12:02:00,80.8,38.4,29.00,WNW,288,3.6,6.3,22,0.00,,BKN250,0.00,VWS V14.00,2013-07-31 17:02:00,
2013-07-31 12:08:00,83.1,37.9,29.00,SSW,209,0.0,6.3,20,0.00,,BKN250,0.00,VWS V14.00,2013-07-31 17:08:00,
2013-07-31 12:12:00,84.6,39.1,29.00,South,191,0.0,2.7,20,0.00,,BKN250,0.00,VWS V14.00,2013-07-31 17:12:00,
2013-07-31 12:17:00,84.4,37.7,29.00,SW,225,3.1,5.4,19,0.00,,BKN250,0.00,VWS V14.00,2013-07-31 17:17:00,
2013-07-31 12:22:00,85.6,38.7,29.00,SW,220,2.7,4.0,19,0.00,,BKN250,0.00,VWS V14.00,2013-07-31 17:22:00,
2013-07-31 12:27:00,86.0,37.6,28.97,WNW,282,3.1,5.8,18,0.00,,BKN250,0.00,VWS V14.00,2013-07-31 17:27:00,
2013-07-31 12:32:00,81.3,37.7,28.97,SSW,195,2.2,6.3,21,0.00,,BKN250,0.00,VWS V14.00,2013-07-31 17:32:00,
2013-07-31 12:37:00,83.7,38.4,28.97,SW,223,0.0,6.3,20,0.00,,BKN250,0.00,VWS V14.00,2013-07-31 17:37:00,
2013-07-31 12:42:00,87.6,38.9,28.97,SW,230,0.0,2.7,18,0.00,,BKN250,0.00,VWS V14.00,2013-07-31 17:42:00,
2013-07-31 12:47:00,84.7,38.0,28.97,WNW,302,2.2,7.6,19,0.00,,BKN250,0.00,VWS V14.00,2013-07-31 17:47:00,
2013-07-31 12:52:00,85.6,38.7,28.97,West,276,0.0,4.0,19,0.00,,BKN250,0.00,VWS V14.00,2013-07-31 17:52:00,
2013-07-31 12:57:00,86.9,39.7,28.97,South,173,0.0,6.3,19,0.00,,BKN040,0.00,VWS V14.00,2013-07-31 17:57:00,
2013-07-31 13:02:00,87.6,38.9,28.97,West,272,0.0,3.6,18,0.00,,BKN040,0.00,VWS V14.00,2013-07-31 18:02:00,
2013-07-31 13:07:00,86.2,39.1,28.97,SW,231,0.0,4.0,19,0.00,,BKN040,0.00,VWS V14.00,2013-07-31 18:07:00,
2013-07-31 13:12:00,85.3,38.4,28.97,WSW,251,3.6,4.9,19,0.00,,BKN040,0.00,VWS V14.00,2013-07-31 18:12:00,
2013-07-31 13:17:00,85.5,38.5,28.97,SW,224,6.3,6.3,19,0.00,,BKN040,0.00,VWS V14.00,2013-07-31 18:17:00,
2013-07-31 13:22:00,82.6,38.7,28.97,West,261,3.6,4.9,21,0.00,,BKN040,0.00,VWS V14.00,2013-07-31 18:22:00,
2013-07-31 13:27:00,84.4,39.0,28.97,SW,217,3.6,4.9,20,0.00,,BKN040,0.00,VWS V14.00,2013-07-31 18:27:00,
2013-07-31 13:32:00,87.1,38.5,28.97,WNW,303,2.7,5.8,18,0.00,,BKN040,0.00,VWS V14.00,2013-07-31 18:32:00,
2013-07-31 13:37:00,89.2,40.2,28.97,NNE,17,0.0,6.3,18,0.00,,BKN040,0.00,VWS V14.00,2013-07-31 18:37:00,
2013-07-31 13:42:00,88.0,39.2,28.97,West,277,4.9,5.8,18,0.00,,BKN040,0.00,VWS V14.00,2013-07-31 18:42:00,
2013-07-31 13:47:00,86.9,38.3,28.97,SW,233,3.1,7.6,18,0.00,,BKN040,0.00,VWS V14.00,2013-07-31 18:47:00,
2013-07-31 13:52:00,85.5,38.5,28.97,WNW,295,2.7,6.3,19,0.00,,BKN040,0.00,VWS V14.00,2013-07-31 18:52:00,
2013-07-31 13:58:00,88.2,39.4,28.97,WNW,289,2.7,8.1,18,0.00,,BKN040,0.00,VWS V14.00,2013-07-31 18:58:00,
2013-07-31 14:03:00,90.1,36.3,28.97,SW,223,4.0,5.8,15,0.00,,FEW042,0.00,VWS V14.00,2013-07-31 19:03:00,
2013-07-31 14:08:00,88.9,35.3,28.97,WSW,254,4.9,8.7,15,0.00,,FEW042,0.00,VWS V14.00,2013-07-31 19:08:00,
2013-07-31 14:13:00,86.4,34.9,28.97,WNW,293,2.7,7.6,16,0.00,,FEW042,0.00,VWS V14.00,2013-07-31 19:13:00,
2013-07-31 14:18:00,91.2,37.2,28.97,WSW,250,5.8,7.6,15,0.00,,FEW042,0.00,VWS V14.00,2013-07-31 19:18:00,
2013-07-31 14:23:00,90.5,36.6,28.97,SE,140,0.0,5.8,15,0.00,,FEW042,0.00,VWS V14.00,2013-07-31 19:23:00,
2013-07-31 14:28:00,92.3,36.3,28.97,SSW,196,0.0,5.8,14,0.00,,FEW042,0.00,VWS V14.00,2013-07-31 19:28:00,
2013-07-31 14:33:00,88.7,35.2,28.97,SW,235,6.3,8.1,15,0.00,,FEW042,0.00,VWS V14.00,2013-07-31 19:33:00,
2013-07-31 14:38:00,88.3,34.9,28.97,South,185,6.3,10.5,15,0.00,,FEW042,0.00,VWS V14.00,2013-07-31 19:38:00,
2013-07-31 14:43:00,89.6,35.9,28.94,WSW,247,4.9,5.8,15,0.00,,FEW042,0.00,VWS V14.00,2013-07-31 19:43:00,
2013-07-31 14:48:00,88.7,35.2,28.94,WSW,237,0.0,6.3,15,0.00,,FEW042,0.00,VWS V14.00,2013-07-31 19:48:00,
2013-07-31 14:52:00,86.7,35.2,28.94,West,262,5.8,5.8,16,0.00,,FEW042,0.00,VWS V14.00,2013-07-31 19:52:00,
2013-07-31 14:57:00,86.2,34.8,28.94,WNW,283,4.0,5.8,16,0.00,,FEW042,0.00,VWS V14.00,2013-07-31 19:57:00,
2013-07-31 15:03:00,85.6,37.3,28.94,West,275,0.0,4.9,18,0.00,,FEW100,0.00,VWS V14.00,2013-07-31 20:03:00,
2013-07-31 15:08:00,90.1,36.3,28.94,SSW,204,0.0,5.4,15,0.00,,FEW100,0.00,VWS V14.00,2013-07-31 20:08:00,
2013-07-31 15:13:00,91.6,31.9,28.94,South,169,3.6,3.6,12,0.00,,FEW100,0.00,VWS V14.00,2013-07-31 20:13:00,
2013-07-31 15:18:00,92.7,32.7,28.94,ESE,117,0.0,4.9,12,0.00,,FEW100,0.00,VWS V14.00,2013-07-31 20:18:00,
2013-07-31 15:23:00,90.1,30.7,28.94,SW,226,4.5,4.5,12,0.00,,FEW100,0.00,VWS V14.00,2013-07-31 20:23:00,
2013-07-31 15:28:00,91.8,32.0,28.94,WNW,302,0.0,5.8,12,0.00,,FEW100,0.00,VWS V14.00,2013-07-31 20:28:00,
2013-07-31 15:33:00,91.2,37.2,28.94,NE,35,0.0,4.0,15,0.00,,FEW100,0.00,VWS V14.00,2013-07-31 20:33:00,
2013-07-31 15:38:00,93.7,37.4,28.94,WSW,254,0.0,4.0,14,0.00,,FEW100,0.00,VWS V14.00,2013-07-31 20:38:00,
2013-07-31 15:43:00,93.4,31.1,28.94,SW,231,3.1,6.7,11,0.00,,FEW100,0.00,VWS V14.00,2013-07-31 20:43:00,
2013-07-31 15:48:00,95.5,32.7,28.94,SE,142,0.0,6.7,11,0.00,,FEW100,0.00,VWS V14.00,2013-07-31 20:48:00,
2013-07-31 15:53:00,93.9,31.5,28.94,WSW,240,2.2,5.4,11,0.00,,FEW100,0.00,VWS V14.00,2013-07-31 20:53:00,
2013-07-31 15:58:00,90.9,36.9,28.94,SSW,206,5.4,5.8,15,0.00,,FEW045,0.00,VWS V14.00,2013-07-31 20:58:00,
2013-07-31 16:03:00,95.0,32.3,28.94,South,176,0.0,6.3,11,0.00,,FEW045,0.00,VWS V14.00,2013-07-31 21:03:00,
2013-07-31 16:08:00,95.9,33.0,28.94,SE,124,0.0,6.3,11,0.00,,FEW045,0.00,VWS V14.00,2013-07-31 21:08:00,
2013-07-31 16:13:00,97.9,34.5,28.94,West,267,2.7,2.7,11,0.00,,FEW045,0.00,VWS V14.00,2013-07-31 21:13:00,
2013-07-31 16:18:00,95.4,32.6,28.94,West,277,0.0,7.2,11,0.00,,FEW045,0.00,VWS V14.00,2013-07-31 21:18:00,
2013-07-31 16:23:00,95.9,33.0,28.94,ESE,111,0.0,4.0,11,0.00,,FEW045,0.00,VWS V14.00,2013-07-31 21:23:00,
2013-07-31 16:28:00,95.9,33.0,28.94,SW,225,0.0,5.8,11,0.00,,FEW045,0.00,VWS V14.00,2013-07-31 21:28:00,
2013-07-31 16:33:00,98.6,32.7,28.94,WSW,250,6.3,6.7,10,0.00,,FEW045,0.00,VWS V14.00,2013-07-31 21:33:00,
2013-07-31 16:38:00,95.4,32.6,28.94,West,271,6.3,6.7,11,0.00,,FEW045,0.00,VWS V14.00,2013-07-31 21:38:00,
2013-07-31 16:43:00,95.4,32.6,28.91,SE,143,0.0,4.9,11,0.00,,FEW045,0.00,VWS V14.00,2013-07-31 21:43:00,
2013-07-31 16:48:00,95.5,32.7,28.91,SSW,209,0.0,8.1,11,0.00,,FEW045,0.00,VWS V14.00,2013-07-31 21:48:00,
2013-07-31 16:53:00,94.5,31.9,28.91,South,189,3.6,3.6,11,0.00,,FEW045,0.00,VWS V14.00,2013-07-31 21:53:00,
2013-07-31 16:58:00,93.2,31.0,28.91,East,100,0.0,8.1,11,0.00,,FEW049,0.00,VWS V14.00,2013-07-31 21:58:00,
2013-07-31 17:03:00,91.2,31.6,28.91,SW,227,2.2,4.9,12,0.00,,FEW049,0.00,VWS V14.00,2013-07-31 22:03:00,
2013-07-31 17:08:00,91.9,32.1,28.91,WSW,246,5.4,6.3,12,0.00,,FEW049,0.00,VWS V14.00,2013-07-31 22:08:00,
2013-07-31 17:13:00,93.9,31.5,28.91,WSW,242,0.0,4.5,11,0.00,,FEW049,0.00,VWS V14.00,2013-07-31 22:13:00,
2013-07-31 17:18:00,92.3,32.4,28.91,West,260,0.0,5.4,12,0.00,,FEW049,0.00,VWS V14.00,2013-07-31 22:18:00,
2013-07-31 17:23:00,92.1,32.3,28.91,WNW,291,0.0,3.6,12,0.00,,FEW049,0.00,VWS V14.00,2013-07-31 22:23:00,
2013-07-31 17:28:00,91.6,31.9,28.91,SW,219,4.9,10.1,12,0.00,,FEW049,0.00,VWS V14.00,2013-07-31 22:28:00,
2013-07-31 17:33:00,95.4,32.6,28.91,ESE,122,0.0,0.0,11,0.00,,FEW049,0.00,VWS V14.00,2013-07-31 22:33:00,
2013-07-31 17:38:00,96.6,33.6,28.91,SSW,209,5.4,5.4,11,0.00,,FEW049,0.00,VWS V14.00,2013-07-31 22:38:00,
2013-07-31 17:43:00,94.6,32.0,28.91,SE,128,0.0,5.4,11,0.00,,FEW049,0.00,VWS V14.00,2013-07-31 22:43:00,
2013-07-31 17:48:00,95.0,32.3,28.91,SE,126,2.7,5.4,11,0.00,,FEW049,0.00,VWS V14.00,2013-07-31 22:48:00,
2013-07-31 17:53:00,93.2,31.0,28.91,West,281,5.4,5.4,11,0.00,,FEW049,0.00,VWS V14.00,2013-07-31 22:53:00,
2013-07-31 17:58:00,89.2,32.0,28.91,SW,222,0.0,5.4,13,0.00,,FEW047,0.00,VWS V14.00,2013-07-31 22:58:00,
2013-07-31 18:03:00,86.4,34.9,28.91,WSW,245,3.6,6.3,16,0.00,,FEW047,0.00,VWS V14.00,2013-07-31 23:03:00,
2013-07-31 18:08:00,84.2,36.2,28.91,West,260,0.0,6.3,18,0.00,,FEW047,0.00,VWS V14.00,2013-07-31 23:08:00,
2013-07-31 18:13:00,87.8,34.5,28.91,SSE,148,2.2,3.1,15,0.00,,FEW047,0.00,VWS V14.00,2013-07-31 23:13:00,
2013-07-31 18:19:00,85.8,34.5,28.91,SE,131,0.0,3.1,16,0.00,,FEW047,0.00,VWS V14.00,2013-07-31 23:19:00,
2013-07-31 18:24:00,84.6,36.4,28.91,South,180,0.0,4.0,18,0.00,,FEW047,0.00,VWS V14.00,2013-07-31 23:24:00,
2013-07-31 18:29:00,83.8,37.2,28.91,SSW,210,0.0,5.8,19,0.00,,FEW047,0.00,VWS V14.00,2013-07-31 23:29:00,
2013-07-31 18:34:00,82.9,36.5,28.91,SW,225,0.0,5.8,19,0.00,,FEW047,0.00,VWS V14.00,2013-07-31 23:34:00,
2013-07-31 18:39:00,83.8,37.2,28.91,SW,230,3.1,6.3,19,0.00,,FEW047,0.00,VWS V14.00,2013-07-31 23:39:00,
2013-07-31 18:44:00,85.8,37.5,28.88,SW,233,0.0,5.8,18,0.00,,FEW047,0.00,VWS V14.00,2013-07-31 23:44:00,
2013-07-31 18:49:00,88.3,34.9,28.88,SSW,211,0.0,5.8,15,0.00,,FEW047,0.00,VWS V14.00,2013-07-31 23:49:00,
2013-07-31 18:54:00,88.5,35.0,28.88,SW,216,0.0,5.8,15,0.00,,FEW047,0.00,VWS V14.00,2013-07-31 23:54:00,
2013-07-31 18:59:00,88.9,35.3,28.88,WSW,245,0.0,5.8,15,0.00,,FEW050,0.00,VWS V14.00,2013-07-31 23:59:00,
2013-07-31 19:04:00,87.8,34.5,28.88,West,280,0.0,5.8,15,0.00,,FEW050,0.00,VWS V14.00,2013-08-01 00:04:00,
2013-07-31 19:09:00,86.5,35.1,28.88,WSW,239,0.0,5.8,16,0.00,,FEW050,0.00,VWS V14.00,2013-08-01 00:09:00,
2013-07-31 19:14:00,88.2,34.7,28.88,West,266,0.0,2.7,15,0.00,,FEW050,0.00,VWS V14.00,2013-08-01 00:14:00,
2013-07-31 19:19:00,88.0,34.6,28.88,SSW,207,3.6,4.0,15,0.00,,FEW050,0.00,VWS V14.00,2013-08-01 00:19:00,
2013-07-31 19:24:00,85.8,37.5,28.88,WNW,293,0.0,3.6,18,0.00,,FEW050,0.00,VWS V14.00,2013-08-01 00:24:00,
2013-07-31 19:29:00,82.4,36.0,28.88,WSW,239,0.0,4.0,19,0.00,,FEW050,0.00,VWS V14.00,2013-08-01 00:29:00,
2013-07-31 19:34:00,80.8,36.0,28.88,SW,231,0.0,5.4,20,0.00,,FEW050,0.00,VWS V14.00,2013-08-01 00:34:00,
2013-07-31 19:39:00,80.1,36.7,28.88,SW,230,0.0,5.4,21,0.00,,FEW050,0.00,VWS V14.00,2013-08-01 00:39:00,
2013-07-31 19:44:00,79.3,36.0,28.88,WSW,252,0.0,0.0,21,0.00,,FEW050,0.00,VWS V14.00,2013-08-01 00:44:00,
2013-07-31 19:49:00,78.6,37.8,28.88,WSW,252,0.0,0.0,23,0.00,,FEW050,0.00,VWS V14.00,2013-08-01 00:49:00,
2013-07-31 19:54:00,78.3,38.5,28.88,WSW,256,0.0,0.0,24,0.00,,FEW050,0.00,VWS V14.00,2013-08-01 00:54:00,
2013-07-31 19:59:00,77.9,38.2,28.91,WSW,256,0.0,0.0,24,0.00,,FEW050TCU,0.00,VWS V14.00,2013-08-01 00:59:00,
2013-07-31 20:04:00,77.7,39.1,28.91,WSW,249,0.0,0.0,25,0.00,,FEW050TCU,0.00,VWS V14.00,2013-08-01 01:04:00,
2013-07-31 20:09:00,77.4,38.8,28.91,WSW,249,0.0,0.0,25,0.00,,FEW050TCU,0.00,VWS V14.00,2013-08-01 01:09:00,
2013-07-31 20:14:00,76.6,40.2,28.91,WSW,249,0.0,0.0,27,0.00,,FEW050TCU,0.00,VWS V14.00,2013-08-01 01:14:00,
2013-07-31 20:19:00,75.7,40.3,28.91,WSW,249,0.0,0.0,28,0.00,,FEW050TCU,0.00,VWS V14.00,2013-08-01 01:19:00,
2013-07-31 20:24:00,75.4,41.8,28.91,WSW,248,0.0,0.0,30,0.00,,FEW050TCU,0.00,VWS V14.00,2013-08-01 01:24:00,
2013-07-31 20:29:00,75.0,42.4,28.88,WSW,248,0.0,0.0,31,0.00,,FEW050TCU,0.00,VWS V14.00,2013-08-01 01:29:00,
2013-07-31 20:34:00,74.7,42.9,28.88,WSW,249,0.0,0.0,32,0.00,,FEW050TCU,0.00,VWS V14.00,2013-08-01 01:34:00,
2013-07-31 20:39:00,74.5,42.7,28.88,WSW,249,0.0,0.0,32,0.00,,FEW050TCU,0.00,VWS V14.00,2013-08-01 01:39:00,
2013-07-31 20:44:00,74.5,42.7,28.91,WSW,249,0.0,0.0,32,0.00,,FEW050TCU,0.00,VWS V14.00,2013-08-01 01:44:00,
2013-07-31 20:49:00,74.3,42.6,28.91,WSW,249,0.0,0.0,32,0.00,,FEW050TCU,0.00,VWS V14.00,2013-08-01 01:49:00,
2013-07-31 20:54:00,74.1,43.2,28.91,WSW,249,0.0,0.0,33,0.00,,FEW050TCU,0.00,VWS V14.00,2013-08-01 01:54:00,
2013-07-31 20:59:00,73.6,43.5,28.91,WSW,249,0.0,0.0,34,0.00,,FEW048TCU,0.00,VWS V14.00,2013-08-01 01:59:00,
2013-07-31 21:04:00,73.4,43.3,28.91,WSW,249,0.0,0.0,34,0.00,,FEW048TCU,0.00,VWS V14.00,2013-08-01 02:04:00,
2013-07-31 21:09:00,73.4,43.3,28.91,WSW,249,0.0,0.0,34,0.00,,FEW048TCU,0.00,VWS V14.00,2013-08-01 02:09:00,
2013-07-31 21:14:00,73.6,43.5,28.91,WSW,249,0.0,0.0,34,0.00,,FEW048TCU,0.00,VWS V14.00,2013-08-01 02:14:00,
2013-07-31 21:19:00,73.8,43.7,28.91,WSW,249,0.0,0.0,34,0.00,,FEW048TCU,0.00,VWS V14.00,2013-08-01 02:19:00,
2013-07-31 21:24:00,73.8,43.7,28.91,WSW,249,0.0,0.0,34,0.00,,FEW048TCU,0.00,VWS V14.00,2013-08-01 02:24:00,
2013-07-31 21:29:00,73.2,44.0,28.91,WSW,249,0.0,0.0,35,0.00,,FEW048TCU,0.00,VWS V14.00,2013-08-01 02:29:00,
2013-07-31 21:34:00,72.7,45.6,28.91,WSW,249,0.0,0.0,38,0.00,,FEW048TCU,0.00,VWS V14.00,2013-08-01 02:34:00,
2013-07-31 21:39:00,72.3,46.0,28.91,WSW,249,0.0,0.0,39,0.00,,FEW048TCU,0.00,VWS V14.00,2013-08-01 02:39:00,
2013-07-31 21:44:00,72.5,46.2,28.91,WSW,249,0.0,0.0,39,0.00,,FEW048TCU,0.00,VWS V14.00,2013-08-01 02:44:00,
2013-07-31 21:49:00,72.5,46.8,28.91,WSW,249,0.0,0.0,40,0.00,,FEW048TCU,0.00,VWS V14.00,2013-08-01 02:49:00,
2013-07-31 21:54:00,72.3,46.0,28.91,WSW,249,0.0,0.0,39,0.00,,FEW048TCU,0.00,VWS V14.00,2013-08-01 02:54:00,
2013-07-31 21:59:00,72.1,46.5,28.91,WSW,249,0.0,0.0,40,0.00,,SCT055,0.00,VWS V14.00,2013-08-01 02:59:00,
2013-07-31 22:04:00,72.0,47.0,28.91,WSW,249,0.0,0.0,41,0.00,,SCT055,0.00,VWS V14.00,2013-08-01 03:04:00,
2013-07-31 22:09:00,71.6,47.3,28.91,WSW,249,0.0,0.0,42,0.00,,SCT055,0.00,VWS V14.00,2013-08-01 03:09:00,
2013-07-31 22:14:00,71.1,47.5,28.91,WSW,249,0.0,0.0,43,0.00,,SCT055,0.00,VWS V14.00,2013-08-01 03:14:00,
2013-07-31 22:19:00,71.1,48.1,28.91,WSW,249,0.0,0.0,44,0.00,,SCT055,0.00,VWS V14.00,2013-08-01 03:19:00,
2013-07-31 22:24:00,70.9,47.9,28.91,WSW,249,0.0,0.0,44,0.00,,SCT055,0.00,VWS V14.00,2013-08-01 03:24:00,
2013-07-31 22:29:00,70.9,48.5,28.91,WSW,249,0.0,0.0,45,0.00,,SCT055,0.00,VWS V14.00,2013-08-01 03:29:00,
2013-07-31 22:34:00,71.1,48.7,28.91,WSW,249,0.0,0.0,45,0.00,,SCT055,0.00,VWS V14.00,2013-08-01 03:34:00,
2013-07-31 22:39:00,71.2,48.2,28.91,WSW,249,0.0,0.0,44,0.00,,SCT055,0.00,VWS V14.00,2013-08-01 03:39:00,
2013-07-31 22:44:00,71.2,48.2,28.91,WSW,249,0.0,0.0,44,0.00,,SCT055,0.00,VWS V14.00,2013-08-01 03:44:00,
2013-07-31 22:49:00,70.9,47.9,28.91,WSW,248,0.0,0.0,44,0.00,,SCT055,0.00,VWS V14.00,2013-08-01 03:49:00,
2013-07-31 22:54:00,70.5,47.6,28.91,WSW,248,0.0,0.0,44,0.00,,SCT055,0.00,VWS V14.00,2013-08-01 03:54:00,
2013-07-31 22:59:00,70.5,48.8,28.94,WSW,249,0.0,0.0,46,0.00,,BKN060,0.00,VWS V14.00,2013-08-01 03:59:00,
2013-07-31 23:01:00,70.7,48.9,28.94,WSW,249,0.0,0.0,46,0.00,,BKN060,0.00,VWS V14.00,2013-08-01 04:01:00,
2013-07-31 23:02:00,70.7,48.9,28.94,WSW,249,0.0,0.0,46,0.00,,BKN060,0.00,VWS V14.00,2013-08-01 04:02:00,
2013-07-31 23:07:00,70.7,48.3,28.94,WSW,249,0.0,0.0,45,0.00,,BKN060,0.00,VWS V14.00,2013-08-01 04:07:00,
2013-07-31 23:12:00,70.7,48.3,28.94,WSW,249,0.0,0.0,45,0.00,,BKN060,0.00,VWS V14.00,2013-08-01 04:12:00,
2013-07-31 23:17:00,70.5,48.2,28.94,WSW,248,0.0,0.0,45,0.00,,BKN060,0.00,VWS V14.00,2013-08-01 04:17:00,
2013-07-31 23:22:00,70.0,47.7,28.94,WSW,248,0.0,0.0,45,0.00,,BKN060,0.00,VWS V14.00,2013-08-01 04:22:00,
2013-07-31 23:27:00,69.8,48.1,28.94,WSW,248,0.0,0.0,46,0.00,,BKN060,0.00,VWS V14.00,2013-08-01 04:27:00,
2013-07-31 23:32:00,69.6,49.1,28.94,WSW,249,0.0,0.0,48,0.00,,BKN060,0.00,VWS V14.00,2013-08-01 04:32:00,
2013-07-31 23:37:00,69.6,49.6,28.94,WSW,249,0.0,0.0,49,0.00,,BKN060,0.00,VWS V14.00,2013-08-01 04:37:00,
2013-07-31 23:42:00,69.3,49.3,28.94,WSW,249,0.0,0.0,49,0.00,,BKN060,0.00,VWS V14.00,2013-08-01 04:42:00,
2013-07-31 23:47:00,68.7,48.8,28.94,WSW,249,0.0,0.0,49,0.00,,BKN060,0.00,VWS V14.00,2013-08-01 04:47:00,
2013-07-31 23:52:00,68.4,49.0,28.94,WSW,249,0.0,0.0,50,0.00,,BKN060,0.00,VWS V14.00,2013-08-01 04:52:00,
2013-07-31 23:57:00,68.2,49.4,28.94,WSW,249,0.0,0.0,51,0.00,,BKN060,0.00,VWS V14.00,2013-08-01 04:57:00,